sensor_id;sensor_type;location;lat;lon;timestamp;temperature;humidity
2867;DHT22;1441;48.886;8.728;2023-03-26T00:01:47;7.60;99.90
2867;DHT22;1441;48.886;8.728;2023-03-26T00:04:14;7.60;99.90
2867;DHT22;1441;48.886;8.728;2023-03-26T00:06:44;7.60;99.90
2867;DHT22;1441;48.886;8.728;2023-03-26T00:09:13;7.50;99.90
2867;DHT22;1441;48.886;8.728;2023-03-26T00:11:40;7.60;99.90
2867;DHT22;1441;48.886;8.728;2023-03-26T00:14:14;7.60;99.90
2867;DHT22;1441;48.886;8.728;2023-03-26T00:16:42;7.70;99.90
2867;DHT22;1441;48.886;8.728;2023-03-26T00:19:08;7.80;99.90
2867;DHT22;1441;48.886;8.728;2023-03-26T00:21:35;7.80;99.90
2867;DHT22;1441;48.886;8.728;2023-03-26T00:24:04;7.80;99.90
2867;DHT22;1441;48.886;8.728;2023-03-26T00:26:34;8.00;99.90
2867;DHT22;1441;48.886;8.728;2023-03-26T00:29:02;8.00;99.90
2867;DHT22;1441;48.886;8.728;2023-03-26T00:31:29;7.90;99.90
2867;DHT22;1441;48.886;8.728;2023-03-26T00:33:54;7.80;99.90
2867;DHT22;1441;48.886;8.728;2023-03-26T00:36:21;7.70;99.90
2867;DHT22;1441;48.886;8.728;2023-03-26T00:38:49;7.90;99.90
2867;DHT22;1441;48.886;8.728;2023-03-26T00:41:18;7.80;99.90
2867;DHT22;1441;48.886;8.728;2023-03-26T00:43:51;7.90;99.90
2867;DHT22;1441;48.886;8.728;2023-03-26T00:46:18;8.10;99.60
2867;DHT22;1441;48.886;8.728;2023-03-26T00:48:45;8.10;99.10
2867;DHT22;1441;48.886;8.728;2023-03-26T00:51:12;8.10;99.20
2867;DHT22;1441;48.886;8.728;2023-03-26T00:53:40;8.10;99.20
2867;DHT22;1441;48.886;8.728;2023-03-26T00:56:07;8.10;99.10
2867;DHT22;1441;48.886;8.728;2023-03-26T00:58:33;8.10;99.10
2867;DHT22;1441;48.886;8.728;2023-03-26T01:01:02;8.00;98.90
2867;DHT22;1441;48.886;8.728;2023-03-26T01:03:32;8.10;98.60
2867;DHT22;1441;48.886;8.728;2023-03-26T01:06:32;8.00;99.00
2867;DHT22;1441;48.886;8.728;2023-03-26T01:09:16;8.00;99.10
2867;DHT22;1441;48.886;8.728;2023-03-26T01:11:43;8.00;98.90
2867;DHT22;1441;48.886;8.728;2023-03-26T01:14:15;7.90;99.50
2867;DHT22;1441;48.886;8.728;2023-03-26T01:19:26;8.10;98.60
2867;DHT22;1441;48.886;8.728;2023-03-26T01:21:54;8.10;98.30
2867;DHT22;1441;48.886;8.728;2023-03-26T01:24:20;8.10;98.20
2867;DHT22;1441;48.886;8.728;2023-03-26T01:29:31;8.10;98.20
2867;DHT22;1441;48.886;8.728;2023-03-26T01:40:33;7.90;99.00
2867;DHT22;1441;48.886;8.728;2023-03-26T01:45:55;7.80;99.10
2867;DHT22;1441;48.886;8.728;2023-03-26T01:48:29;7.90;98.70
2867;DHT22;1441;48.886;8.728;2023-03-26T01:50:55;8.00;97.50
2867;DHT22;1441;48.886;8.728;2023-03-26T01:53:23;7.90;97.90
2867;DHT22;1441;48.886;8.728;2023-03-26T01:59:02;8.00;97.70
2867;DHT22;1441;48.886;8.728;2023-03-26T02:01:44;8.10;97.30
2867;DHT22;1441;48.886;8.728;2023-03-26T02:07:19;8.10;97.00
2867;DHT22;1441;48.886;8.728;2023-03-26T02:09:52;8.00;97.50
2867;DHT22;1441;48.886;8.728;2023-03-26T02:12:21;8.10;96.80
2867;DHT22;1441;48.886;8.728;2023-03-26T02:14:48;8.10;96.90
2867;DHT22;1441;48.886;8.728;2023-03-26T02:17:13;8.20;97.10
2867;DHT22;1441;48.886;8.728;2023-03-26T02:19:41;8.20;96.60
2867;DHT22;1441;48.886;8.728;2023-03-26T02:22:11;8.20;97.10
2867;DHT22;1441;48.886;8.728;2023-03-26T02:24:41;8.10;98.00
2867;DHT22;1441;48.886;8.728;2023-03-26T02:27:07;8.10;98.40
2867;DHT22;1441;48.886;8.728;2023-03-26T02:29:34;8.00;98.80
2867;DHT22;1441;48.886;8.728;2023-03-26T02:32:03;7.90;99.50
2867;DHT22;1441;48.886;8.728;2023-03-26T02:34:29;7.80;99.30
2867;DHT22;1441;48.886;8.728;2023-03-26T02:36:56;7.80;99.40
2867;DHT22;1441;48.886;8.728;2023-03-26T02:39:22;7.70;99.60
2867;DHT22;1441;48.886;8.728;2023-03-26T02:41:48;7.70;99.60
2867;DHT22;1441;48.886;8.728;2023-03-26T02:44:13;7.60;99.50
2867;DHT22;1441;48.886;8.728;2023-03-26T02:46:39;7.50;99.90
2867;DHT22;1441;48.886;8.728;2023-03-26T02:49:05;7.50;99.90
2867;DHT22;1441;48.886;8.728;2023-03-26T02:51:31;7.50;99.90
2867;DHT22;1441;48.886;8.728;2023-03-26T02:54:03;7.60;99.70
2867;DHT22;1441;48.886;8.728;2023-03-26T02:56:28;7.60;99.20
2867;DHT22;1441;48.886;8.728;2023-03-26T02:58:54;7.60;99.20
2867;DHT22;1441;48.886;8.728;2023-03-26T03:01:20;7.50;99.90
2867;DHT22;1441;48.886;8.728;2023-03-26T03:03:47;7.50;99.70
2867;DHT22;1441;48.886;8.728;2023-03-26T03:06:13;7.70;99.00
2867;DHT22;1441;48.886;8.728;2023-03-26T03:08:41;7.70;98.70
2867;DHT22;1441;48.886;8.728;2023-03-26T03:11:09;7.70;98.90
2867;DHT22;1441;48.886;8.728;2023-03-26T03:13:35;7.70;99.20
2867;DHT22;1441;48.886;8.728;2023-03-26T03:16:01;7.70;99.50
2867;DHT22;1441;48.886;8.728;2023-03-26T03:18:26;7.60;99.80
2867;DHT22;1441;48.886;8.728;2023-03-26T03:20:52;7.60;99.90
2867;DHT22;1441;48.886;8.728;2023-03-26T03:23:18;7.40;99.90
2867;DHT22;1441;48.886;8.728;2023-03-26T03:25:44;7.40;99.90
2867;DHT22;1441;48.886;8.728;2023-03-26T03:28:10;7.40;99.90
2867;DHT22;1441;48.886;8.728;2023-03-26T03:30:36;7.40;99.90
2867;DHT22;1441;48.886;8.728;2023-03-26T03:33:02;7.30;99.90
2867;DHT22;1441;48.886;8.728;2023-03-26T03:35:28;7.30;99.90
2867;DHT22;1441;48.886;8.728;2023-03-26T03:37:55;7.30;99.90
2867;DHT22;1441;48.886;8.728;2023-03-26T03:40:21;7.30;99.90
2867;DHT22;1441;48.886;8.728;2023-03-26T03:42:46;7.30;99.90
2867;DHT22;1441;48.886;8.728;2023-03-26T03:45:12;7.20;99.90
2867;DHT22;1441;48.886;8.728;2023-03-26T03:47:38;7.30;99.90
2867;DHT22;1441;48.886;8.728;2023-03-26T03:50:05;7.40;99.90
2867;DHT22;1441;48.886;8.728;2023-03-26T03:52:31;7.40;99.90
2867;DHT22;1441;48.886;8.728;2023-03-26T03:54:57;7.70;99.90
2867;DHT22;1441;48.886;8.728;2023-03-26T03:57:25;7.70;99.90
2867;DHT22;1441;48.886;8.728;2023-03-26T03:59:51;7.70;99.90
2867;DHT22;1441;48.886;8.728;2023-03-26T04:02:17;7.60;99.90
2867;DHT22;1441;48.886;8.728;2023-03-26T04:04:51;7.50;99.90
2867;DHT22;1441;48.886;8.728;2023-03-26T04:07:17;7.50;99.90
2867;DHT22;1441;48.886;8.728;2023-03-26T04:09:43;7.50;99.90
2867;DHT22;1441;48.886;8.728;2023-03-26T04:12:09;7.50;99.90
2867;DHT22;1441;48.886;8.728;2023-03-26T04:14:34;7.40;99.90
2867;DHT22;1441;48.886;8.728;2023-03-26T04:17:00;7.40;99.90
2867;DHT22;1441;48.886;8.728;2023-03-26T04:19:26;7.40;99.90
2867;DHT22;1441;48.886;8.728;2023-03-26T04:21:52;7.40;99.90
2867;DHT22;1441;48.886;8.728;2023-03-26T04:24:18;7.50;99.90
2867;DHT22;1441;48.886;8.728;2023-03-26T04:26:47;7.50;99.90
2867;DHT22;1441;48.886;8.728;2023-03-26T04:29:14;7.50;99.90
2867;DHT22;1441;48.886;8.728;2023-03-26T04:31:42;7.60;99.90
2867;DHT22;1441;48.886;8.728;2023-03-26T04:34:17;7.60;99.90
2867;DHT22;1441;48.886;8.728;2023-03-26T04:36:44;7.50;99.90
2867;DHT22;1441;48.886;8.728;2023-03-26T04:39:11;7.60;99.90
2867;DHT22;1441;48.886;8.728;2023-03-26T04:41:37;7.60;99.90
2867;DHT22;1441;48.886;8.728;2023-03-26T04:44:03;7.50;99.90
2867;DHT22;1441;48.886;8.728;2023-03-26T04:46:29;7.40;99.90
2867;DHT22;1441;48.886;8.728;2023-03-26T04:48:58;7.50;99.90
2867;DHT22;1441;48.886;8.728;2023-03-26T04:51:25;7.50;99.90
2867;DHT22;1441;48.886;8.728;2023-03-26T04:53:53;7.40;99.90
2867;DHT22;1441;48.886;8.728;2023-03-26T04:56:38;7.40;99.90
2867;DHT22;1441;48.886;8.728;2023-03-26T04:59:07;7.30;99.90
2867;DHT22;1441;48.886;8.728;2023-03-26T05:01:33;7.40;99.90
2867;DHT22;1441;48.886;8.728;2023-03-26T05:04:02;7.30;99.90
2867;DHT22;1441;48.886;8.728;2023-03-26T05:06:27;7.40;99.90
2867;DHT22;1441;48.886;8.728;2023-03-26T05:08:54;7.50;99.90
2867;DHT22;1441;48.886;8.728;2023-03-26T05:11:20;7.50;99.90
2867;DHT22;1441;48.886;8.728;2023-03-26T05:13:45;7.50;99.90
2867;DHT22;1441;48.886;8.728;2023-03-26T05:16:11;7.40;99.90
2867;DHT22;1441;48.886;8.728;2023-03-26T05:18:38;7.50;99.90
2867;DHT22;1441;48.886;8.728;2023-03-26T05:21:04;7.50;99.90
2867;DHT22;1441;48.886;8.728;2023-03-26T05:23:30;7.40;99.90
2867;DHT22;1441;48.886;8.728;2023-03-26T05:25:55;7.40;99.90
2867;DHT22;1441;48.886;8.728;2023-03-26T05:28:21;7.40;99.90
2867;DHT22;1441;48.886;8.728;2023-03-26T05:30:49;7.40;99.90
2867;DHT22;1441;48.886;8.728;2023-03-26T05:33:17;7.40;99.90
2867;DHT22;1441;48.886;8.728;2023-03-26T05:35:43;7.50;99.90
2867;DHT22;1441;48.886;8.728;2023-03-26T05:38:09;7.50;99.90
2867;DHT22;1441;48.886;8.728;2023-03-26T05:40:35;7.50;99.90
2867;DHT22;1441;48.886;8.728;2023-03-26T05:43:01;7.50;99.90
2867;DHT22;1441;48.886;8.728;2023-03-26T05:45:27;7.60;99.80
2867;DHT22;1441;48.886;8.728;2023-03-26T05:47:52;7.80;96.20
2867;DHT22;1441;48.886;8.728;2023-03-26T05:50:20;7.90;94.50
2867;DHT22;1441;48.886;8.728;2023-03-26T05:52:46;8.10;94.00
2867;DHT22;1441;48.886;8.728;2023-03-26T05:55:11;8.20;93.60
2867;DHT22;1441;48.886;8.728;2023-03-26T05:57:38;8.20;94.10
2867;DHT22;1441;48.886;8.728;2023-03-26T06:00:05;8.10;95.60
2867;DHT22;1441;48.886;8.728;2023-03-26T06:02:33;8.00;96.80
2867;DHT22;1441;48.886;8.728;2023-03-26T06:04:59;8.00;97.40
2867;DHT22;1441;48.886;8.728;2023-03-26T06:07:26;7.90;98.00
2867;DHT22;1441;48.886;8.728;2023-03-26T06:09:52;7.80;98.10
2867;DHT22;1441;48.886;8.728;2023-03-26T06:12:18;7.80;98.70
2867;DHT22;1441;48.886;8.728;2023-03-26T06:14:43;7.70;99.10
2867;DHT22;1441;48.886;8.728;2023-03-26T06:17:10;7.70;99.20
2867;DHT22;1441;48.886;8.728;2023-03-26T06:19:36;7.70;99.60
2867;DHT22;1441;48.886;8.728;2023-03-26T06:22:02;7.70;99.70
2867;DHT22;1441;48.886;8.728;2023-03-26T06:24:28;7.70;99.90
2867;DHT22;1441;48.886;8.728;2023-03-26T06:26:53;7.60;99.90
2867;DHT22;1441;48.886;8.728;2023-03-26T06:29:19;7.60;99.90
2867;DHT22;1441;48.886;8.728;2023-03-26T06:31:45;7.60;99.90
2867;DHT22;1441;48.886;8.728;2023-03-26T06:34:10;7.60;99.90
2867;DHT22;1441;48.886;8.728;2023-03-26T06:36:36;7.60;99.90
2867;DHT22;1441;48.886;8.728;2023-03-26T06:39:02;7.70;99.90
2867;DHT22;1441;48.886;8.728;2023-03-26T06:41:28;7.70;99.90
2867;DHT22;1441;48.886;8.728;2023-03-26T06:43:54;7.60;99.90
2867;DHT22;1441;48.886;8.728;2023-03-26T06:46:20;7.60;99.90
2867;DHT22;1441;48.886;8.728;2023-03-26T06:48:47;7.60;99.90
2867;DHT22;1441;48.886;8.728;2023-03-26T06:51:13;7.60;99.90
2867;DHT22;1441;48.886;8.728;2023-03-26T06:53:39;7.60;99.90
2867;DHT22;1441;48.886;8.728;2023-03-26T06:56:04;7.70;99.90
2867;DHT22;1441;48.886;8.728;2023-03-26T06:58:30;7.70;99.90
2867;DHT22;1441;48.886;8.728;2023-03-26T07:00:56;7.80;99.90
2867;DHT22;1441;48.886;8.728;2023-03-26T07:03:22;7.90;99.90
2867;DHT22;1441;48.886;8.728;2023-03-26T07:05:48;7.90;99.90
2867;DHT22;1441;48.886;8.728;2023-03-26T07:08:13;7.90;99.90
2867;DHT22;1441;48.886;8.728;2023-03-26T07:10:39;7.80;99.90
2867;DHT22;1441;48.886;8.728;2023-03-26T07:13:05;7.80;99.90
2867;DHT22;1441;48.886;8.728;2023-03-26T07:15:30;7.70;99.90
2867;DHT22;1441;48.886;8.728;2023-03-26T07:17:56;7.60;99.90
2867;DHT22;1441;48.886;8.728;2023-03-26T07:20:22;7.60;99.90
2867;DHT22;1441;48.886;8.728;2023-03-26T07:22:48;7.60;99.90
2867;DHT22;1441;48.886;8.728;2023-03-26T07:25:15;7.70;99.90
2867;DHT22;1441;48.886;8.728;2023-03-26T07:27:52;7.80;99.90
2867;DHT22;1441;48.886;8.728;2023-03-26T07:30:41;7.70;99.90
2867;DHT22;1441;48.886;8.728;2023-03-26T07:33:34;7.60;99.90
2867;DHT22;1441;48.886;8.728;2023-03-26T07:47:16;7.50;99.90
2867;DHT22;1441;48.886;8.728;2023-03-26T07:49:42;7.40;99.90
2867;DHT22;1441;48.886;8.728;2023-03-26T07:52:09;7.50;99.90
2867;DHT22;1441;48.886;8.728;2023-03-26T07:54:35;7.40;99.90
2867;DHT22;1441;48.886;8.728;2023-03-26T07:57:09;7.40;99.90
2867;DHT22;1441;48.886;8.728;2023-03-26T07:59:51;7.40;99.90
2867;DHT22;1441;48.886;8.728;2023-03-26T08:02:31;7.40;99.90
2867;DHT22;1441;48.886;8.728;2023-03-26T08:07:51;7.30;99.90
2867;DHT22;1441;48.886;8.728;2023-03-26T08:10:26;7.30;99.90
2867;DHT22;1441;48.886;8.728;2023-03-26T08:13:16;7.40;99.90
2867;DHT22;1441;48.886;8.728;2023-03-26T08:15:56;7.50;99.90
2867;DHT22;1441;48.886;8.728;2023-03-26T08:19:02;7.50;99.90
2867;DHT22;1441;48.886;8.728;2023-03-26T08:21:41;7.50;99.90
2867;DHT22;1441;48.886;8.728;2023-03-26T08:24:21;7.40;99.90
2867;DHT22;1441;48.886;8.728;2023-03-26T08:27:10;7.40;99.90
2867;DHT22;1441;48.886;8.728;2023-03-26T08:30:17;7.40;99.90
2867;DHT22;1441;48.886;8.728;2023-03-26T08:32:53;7.30;99.90
2867;DHT22;1441;48.886;8.728;2023-03-26T08:35:20;7.30;99.90
2867;DHT22;1441;48.886;8.728;2023-03-26T08:37:49;7.30;99.90
2867;DHT22;1441;48.886;8.728;2023-03-26T08:40:37;7.40;99.90
2867;DHT22;1441;48.886;8.728;2023-03-26T08:57:27;9.70;99.90
2867;DHT22;1441;48.886;8.728;2023-03-26T09:25:21;12.60;93.50
2867;DHT22;1441;48.886;8.728;2023-03-26T09:30:50;11.40;97.70
2867;DHT22;1441;48.886;8.728;2023-03-26T09:38:43;10.40;99.90
2867;DHT22;1441;48.886;8.728;2023-03-26T09:41:17;10.30;99.90
2867;DHT22;1441;48.886;8.728;2023-03-26T09:44:11;10.30;99.90
2867;DHT22;1441;48.886;8.728;2023-03-26T09:46:57;10.30;99.90
2867;DHT22;1441;48.886;8.728;2023-03-26T10:00:29;10.50;98.30
2867;DHT22;1441;48.886;8.728;2023-03-26T10:03:24;11.50;94.90
2867;DHT22;1441;48.886;8.728;2023-03-26T10:14:53;13.20;83.70
2867;DHT22;1441;48.886;8.728;2023-03-26T10:22:46;12.60;87.70
2867;DHT22;1441;48.886;8.728;2023-03-26T10:33:41;13.10;85.30
2867;DHT22;1441;48.886;8.728;2023-03-26T10:36:36;13.00;85.70
2867;DHT22;1441;48.886;8.728;2023-03-26T10:42:14;13.20;84.70
2867;DHT22;1441;48.886;8.728;2023-03-26T10:50:18;13.50;83.30
2867;DHT22;1441;48.886;8.728;2023-03-26T10:53:02;13.40;80.30
2867;DHT22;1441;48.886;8.728;2023-03-26T10:55:38;13.50;81.90
2867;DHT22;1441;48.886;8.728;2023-03-26T10:58:26;13.80;80.40
2867;DHT22;1441;48.886;8.728;2023-03-26T11:01:04;14.00;79.80
2867;DHT22;1441;48.886;8.728;2023-03-26T11:03:50;13.70;79.70
2867;DHT22;1441;48.886;8.728;2023-03-26T11:06:29;13.60;79.90
2867;DHT22;1441;48.886;8.728;2023-03-26T11:09:26;13.40;80.20
2867;DHT22;1441;48.886;8.728;2023-03-26T11:12:18;13.10;82.40
2867;DHT22;1441;48.886;8.728;2023-03-26T11:14:49;12.90;86.00
2867;DHT22;1441;48.886;8.728;2023-03-26T11:19:58;12.10;90.30
2867;DHT22;1441;48.886;8.728;2023-03-26T11:25:32;11.90;89.30
2867;DHT22;1441;48.886;8.728;2023-03-26T11:28:29;11.80;88.70
2867;DHT22;1441;48.886;8.728;2023-03-26T11:33:34;11.50;90.00
2867;DHT22;1441;48.886;8.728;2023-03-26T11:36:07;11.30;89.10
2867;DHT22;1441;48.886;8.728;2023-03-26T11:38:40;11.20;90.30
2867;DHT22;1441;48.886;8.728;2023-03-26T11:41:17;11.30;90.80
2867;DHT22;1441;48.886;8.728;2023-03-26T11:43:48;11.40;90.70
2867;DHT22;1441;48.886;8.728;2023-03-26T11:46:19;11.50;91.90
2867;DHT22;1441;48.886;8.728;2023-03-26T11:48:48;11.40;92.50
2867;DHT22;1441;48.886;8.728;2023-03-26T11:51:29;11.30;92.30
2867;DHT22;1441;48.886;8.728;2023-03-26T11:53:56;11.50;91.80
2867;DHT22;1441;48.886;8.728;2023-03-26T11:56:56;11.80;91.30
2867;DHT22;1441;48.886;8.728;2023-03-26T11:59:33;12.20;90.80
2867;DHT22;1441;48.886;8.728;2023-03-26T12:04:42;12.50;88.70
2867;DHT22;1441;48.886;8.728;2023-03-26T12:07:15;12.70;87.10
2867;DHT22;1441;48.886;8.728;2023-03-26T12:09:51;13.00;86.50
2867;DHT22;1441;48.886;8.728;2023-03-26T12:12:17;13.20;86.40
2867;DHT22;1441;48.886;8.728;2023-03-26T12:14:43;13.30;84.20
2867;DHT22;1441;48.886;8.728;2023-03-26T12:17:33;13.40;82.50
2867;DHT22;1441;48.886;8.728;2023-03-26T12:19:59;13.60;81.80
2867;DHT22;1441;48.886;8.728;2023-03-26T12:22:26;13.90;80.30
2867;DHT22;1441;48.886;8.728;2023-03-26T12:25:21;14.10;78.80
2867;DHT22;1441;48.886;8.728;2023-03-26T12:28:03;14.20;77.70
2867;DHT22;1441;48.886;8.728;2023-03-26T12:30:39;14.40;77.60
2867;DHT22;1441;48.886;8.728;2023-03-26T12:33:20;14.40;74.30
2867;DHT22;1441;48.886;8.728;2023-03-26T12:35:50;14.50;75.50
2867;DHT22;1441;48.886;8.728;2023-03-26T12:41:06;15.00;73.60
2867;DHT22;1441;48.886;8.728;2023-03-26T12:43:43;15.10;73.30
2867;DHT22;1441;48.886;8.728;2023-03-26T12:46:28;14.90;72.30
2867;DHT22;1441;48.886;8.728;2023-03-26T12:48:57;14.40;73.00
2867;DHT22;1441;48.886;8.728;2023-03-26T13:02:24;11.70;93.40
2867;DHT22;1441;48.886;8.728;2023-03-26T13:07:45;12.60;93.50
2867;DHT22;1441;48.886;8.728;2023-03-26T13:16:08;13.80;86.50
2867;DHT22;1441;48.886;8.728;2023-03-26T13:18:55;13.90;86.40
2867;DHT22;1441;48.886;8.728;2023-03-26T13:21:40;14.00;83.50
2867;DHT22;1441;48.886;8.728;2023-03-26T13:32:37;14.60;82.40
2867;DHT22;1441;48.886;8.728;2023-03-26T13:38:14;14.60;79.50
2867;DHT22;1441;48.886;8.728;2023-03-26T13:46:33;14.10;80.20
2867;DHT22;1441;48.886;8.728;2023-03-26T13:49:14;13.70;79.80
2867;DHT22;1441;48.886;8.728;2023-03-26T13:57:36;13.00;80.90
2867;DHT22;1441;48.886;8.728;2023-03-26T14:00:14;12.90;80.50
2867;DHT22;1441;48.886;8.728;2023-03-26T14:02:41;12.90;80.90
2867;DHT22;1441;48.886;8.728;2023-03-26T14:05:23;12.90;81.80
2867;DHT22;1441;48.886;8.728;2023-03-26T14:08:04;12.70;81.70
2867;DHT22;1441;48.886;8.728;2023-03-26T14:10:40;12.70;81.50
2867;DHT22;1441;48.886;8.728;2023-03-26T14:15:56;12.50;81.80
2867;DHT22;1441;48.886;8.728;2023-03-26T14:18:36;12.40;83.50
2867;DHT22;1441;48.886;8.728;2023-03-26T14:21:40;12.30;81.60
2867;DHT22;1441;48.886;8.728;2023-03-26T14:33:18;11.00;92.20
2867;DHT22;1441;48.886;8.728;2023-03-26T14:35:32;10.00;96.70
2867;DHT22;1441;48.886;8.728;2023-03-26T14:38:29;9.40;99.00
2867;DHT22;1441;48.886;8.728;2023-03-26T14:47:01;8.70;99.90
2867;DHT22;1441;48.886;8.728;2023-03-26T14:52:07;8.40;99.90
2867;DHT22;1441;48.886;8.728;2023-03-26T14:54:42;8.40;99.90
2867;DHT22;1441;48.886;8.728;2023-03-26T15:00:12;8.50;99.90
2867;DHT22;1441;48.886;8.728;2023-03-26T15:05:56;8.50;99.90
2867;DHT22;1441;48.886;8.728;2023-03-26T15:11:48;8.40;99.90
2867;DHT22;1441;48.886;8.728;2023-03-26T15:20:04;8.20;99.90
2867;DHT22;1441;48.886;8.728;2023-03-26T15:26:17;8.30;99.90
2867;DHT22;1441;48.886;8.728;2023-03-26T15:29:15;8.10;99.90
2867;DHT22;1441;48.886;8.728;2023-03-26T15:41:15;8.00;99.90
2867;DHT22;1441;48.886;8.728;2023-03-26T15:49:13;8.40;99.90
2867;DHT22;1441;48.886;8.728;2023-03-26T15:52:16;8.60;99.90
2867;DHT22;1441;48.886;8.728;2023-03-26T15:57:43;8.40;99.90
2867;DHT22;1441;48.886;8.728;2023-03-26T16:00:24;8.40;99.90
2867;DHT22;1441;48.886;8.728;2023-03-26T16:08:23;8.40;99.90
2867;DHT22;1441;48.886;8.728;2023-03-26T16:10:59;8.30;99.90
2867;DHT22;1441;48.886;8.728;2023-03-26T16:13:39;8.50;99.90
2867;DHT22;1441;48.886;8.728;2023-03-26T16:18:58;8.30;99.90
2867;DHT22;1441;48.886;8.728;2023-03-26T16:21:56;8.40;99.90
2867;DHT22;1441;48.886;8.728;2023-03-26T16:24:32;8.30;99.90
2867;DHT22;1441;48.886;8.728;2023-03-26T16:29:33;8.30;99.90
2867;DHT22;1441;48.886;8.728;2023-03-26T16:32:32;8.10;99.90
2867;DHT22;1441;48.886;8.728;2023-03-26T16:35:21;8.20;99.90
2867;DHT22;1441;48.886;8.728;2023-03-26T16:38:03;8.20;99.90
2867;DHT22;1441;48.886;8.728;2023-03-26T16:40:34;8.20;99.90
2867;DHT22;1441;48.886;8.728;2023-03-26T16:43:25;8.20;99.90
2867;DHT22;1441;48.886;8.728;2023-03-26T16:46:08;8.10;99.90
2867;DHT22;1441;48.886;8.728;2023-03-26T16:51:47;8.20;99.90
2867;DHT22;1441;48.886;8.728;2023-03-26T17:00:04;8.10;99.90
2867;DHT22;1441;48.886;8.728;2023-03-26T17:11:18;8.00;99.90
2867;DHT22;1441;48.886;8.728;2023-03-26T17:14:24;8.00;99.90
2867;DHT22;1441;48.886;8.728;2023-03-26T17:20:04;8.00;99.90
2867;DHT22;1441;48.886;8.728;2023-03-26T17:22:51;7.90;99.90
2867;DHT22;1441;48.886;8.728;2023-03-26T17:25:27;7.90;99.90
2867;DHT22;1441;48.886;8.728;2023-03-26T17:33:32;7.80;99.90
2867;DHT22;1441;48.886;8.728;2023-03-26T17:41:10;7.70;99.90
2867;DHT22;1441;48.886;8.728;2023-03-26T17:46:39;7.60;99.90
2867;DHT22;1441;48.886;8.728;2023-03-26T17:49:19;7.70;99.90
2867;DHT22;1441;48.886;8.728;2023-03-26T17:51:48;7.60;99.90
2867;DHT22;1441;48.886;8.728;2023-03-26T17:54:28;7.70;99.90
2867;DHT22;1441;48.886;8.728;2023-03-26T17:57:02;7.60;99.90
2867;DHT22;1441;48.886;8.728;2023-03-26T17:59:30;7.60;99.90
2867;DHT22;1441;48.886;8.728;2023-03-26T18:02:36;7.60;99.90
2867;DHT22;1441;48.886;8.728;2023-03-26T18:05:09;7.50;99.90
2867;DHT22;1441;48.886;8.728;2023-03-26T18:11:09;7.50;99.90
2867;DHT22;1441;48.886;8.728;2023-03-26T18:13:55;7.50;99.90
2867;DHT22;1441;48.886;8.728;2023-03-26T18:16:38;7.50;99.90
2867;DHT22;1441;48.886;8.728;2023-03-26T18:19:17;7.50;99.90
2867;DHT22;1441;48.886;8.728;2023-03-26T18:21:57;7.50;99.90
2867;DHT22;1441;48.886;8.728;2023-03-26T18:24:37;7.50;99.90
2867;DHT22;1441;48.886;8.728;2023-03-26T18:27:09;7.40;99.90
2867;DHT22;1441;48.886;8.728;2023-03-26T18:29:43;7.40;99.90
2867;DHT22;1441;48.886;8.728;2023-03-26T18:34:45;7.30;99.90
2867;DHT22;1441;48.886;8.728;2023-03-26T18:37:33;7.20;99.90
2867;DHT22;1441;48.886;8.728;2023-03-26T18:40:21;7.20;99.90
2867;DHT22;1441;48.886;8.728;2023-03-26T18:42:49;7.20;99.90
2867;DHT22;1441;48.886;8.728;2023-03-26T18:45:25;7.10;99.90
2867;DHT22;1441;48.886;8.728;2023-03-26T18:47:53;7.00;99.90
2867;DHT22;1441;48.886;8.728;2023-03-26T18:50:28;7.10;99.90
2867;DHT22;1441;48.886;8.728;2023-03-26T18:52:56;6.90;99.90
2867;DHT22;1441;48.886;8.728;2023-03-26T18:55:28;6.90;99.90
2867;DHT22;1441;48.886;8.728;2023-03-26T18:57:55;6.80;99.90
2867;DHT22;1441;48.886;8.728;2023-03-26T19:00:23;6.80;99.90
2867;DHT22;1441;48.886;8.728;2023-03-26T19:03:05;6.80;99.90
2867;DHT22;1441;48.886;8.728;2023-03-26T19:05:32;6.80;99.90
2867;DHT22;1441;48.886;8.728;2023-03-26T19:08:00;6.80;99.90
2867;DHT22;1441;48.886;8.728;2023-03-26T19:10:28;6.80;99.90
2867;DHT22;1441;48.886;8.728;2023-03-26T19:12:57;6.60;99.90
2867;DHT22;1441;48.886;8.728;2023-03-26T19:15:27;6.60;99.90
2867;DHT22;1441;48.886;8.728;2023-03-26T19:18:01;6.70;99.90
2867;DHT22;1441;48.886;8.728;2023-03-26T19:23:06;6.60;99.90
2867;DHT22;1441;48.886;8.728;2023-03-26T19:25:45;6.60;99.90
2867;DHT22;1441;48.886;8.728;2023-03-26T19:28:17;6.60;99.90
2867;DHT22;1441;48.886;8.728;2023-03-26T19:30:44;6.60;99.90
2867;DHT22;1441;48.886;8.728;2023-03-26T19:33:17;6.50;99.90
2867;DHT22;1441;48.886;8.728;2023-03-26T19:35:49;6.40;99.90
2867;DHT22;1441;48.886;8.728;2023-03-26T19:38:24;6.40;99.90
2867;DHT22;1441;48.886;8.728;2023-03-26T19:40:53;6.40;99.90
2867;DHT22;1441;48.886;8.728;2023-03-26T19:43:19;6.40;99.90
2867;DHT22;1441;48.886;8.728;2023-03-26T19:45:45;6.50;99.90
2867;DHT22;1441;48.886;8.728;2023-03-26T19:48:16;6.40;99.90
2867;DHT22;1441;48.886;8.728;2023-03-26T19:50:52;6.50;99.90
2867;DHT22;1441;48.886;8.728;2023-03-26T19:53:30;6.50;99.90
2867;DHT22;1441;48.886;8.728;2023-03-26T19:58:35;6.60;99.90
2867;DHT22;1441;48.886;8.728;2023-03-26T20:01:04;6.60;99.90
2867;DHT22;1441;48.886;8.728;2023-03-26T20:03:39;6.70;99.90
2867;DHT22;1441;48.886;8.728;2023-03-26T20:06:08;6.60;99.90
2867;DHT22;1441;48.886;8.728;2023-03-26T20:08:34;6.60;99.90
2867;DHT22;1441;48.886;8.728;2023-03-26T20:11:00;6.60;99.90
2867;DHT22;1441;48.886;8.728;2023-03-26T20:13:25;6.60;99.90
2867;DHT22;1441;48.886;8.728;2023-03-26T20:15:57;6.60;99.90
2867;DHT22;1441;48.886;8.728;2023-03-26T20:18:23;6.60;99.90
2867;DHT22;1441;48.886;8.728;2023-03-26T20:20:50;6.60;99.90
2867;DHT22;1441;48.886;8.728;2023-03-26T20:23:18;6.60;99.90
2867;DHT22;1441;48.886;8.728;2023-03-26T20:25:53;6.70;99.90
2867;DHT22;1441;48.886;8.728;2023-03-26T20:28:19;6.80;99.90
2867;DHT22;1441;48.886;8.728;2023-03-26T20:30:49;6.80;99.90
2867;DHT22;1441;48.886;8.728;2023-03-26T20:33:18;6.80;99.90
2867;DHT22;1441;48.886;8.728;2023-03-26T20:35:44;6.90;99.90
2867;DHT22;1441;48.886;8.728;2023-03-26T20:38:10;6.90;99.90
2867;DHT22;1441;48.886;8.728;2023-03-26T20:40:36;7.00;99.90
2867;DHT22;1441;48.886;8.728;2023-03-26T20:43:03;7.00;99.90
2867;DHT22;1441;48.886;8.728;2023-03-26T20:45:28;7.00;99.90
2867;DHT22;1441;48.886;8.728;2023-03-26T20:47:54;7.00;99.90
2867;DHT22;1441;48.886;8.728;2023-03-26T20:50:21;7.10;99.90
2867;DHT22;1441;48.886;8.728;2023-03-26T20:52:51;7.10;99.90
2867;DHT22;1441;48.886;8.728;2023-03-26T20:55:19;7.00;99.90
2867;DHT22;1441;48.886;8.728;2023-03-26T20:57:48;7.10;99.90
2867;DHT22;1441;48.886;8.728;2023-03-26T21:00:16;7.10;99.90
2867;DHT22;1441;48.886;8.728;2023-03-26T21:02:48;7.10;99.90
2867;DHT22;1441;48.886;8.728;2023-03-26T21:05:25;7.00;99.90
2867;DHT22;1441;48.886;8.728;2023-03-26T21:07:52;7.10;99.90
2867;DHT22;1441;48.886;8.728;2023-03-26T21:10:18;7.10;99.90
2867;DHT22;1441;48.886;8.728;2023-03-26T21:12:58;7.10;99.90
2867;DHT22;1441;48.886;8.728;2023-03-26T21:15:27;6.90;99.90
2867;DHT22;1441;48.886;8.728;2023-03-26T21:17:54;6.90;99.90
2867;DHT22;1441;48.886;8.728;2023-03-26T21:20:21;6.90;99.90
2867;DHT22;1441;48.886;8.728;2023-03-26T21:23:02;7.00;99.90
2867;DHT22;1441;48.886;8.728;2023-03-26T21:25:50;6.90;99.90
2867;DHT22;1441;48.886;8.728;2023-03-26T21:28:33;7.00;99.90
2867;DHT22;1441;48.886;8.728;2023-03-26T21:31:00;7.00;99.90
2867;DHT22;1441;48.886;8.728;2023-03-26T21:33:26;7.00;99.90
2867;DHT22;1441;48.886;8.728;2023-03-26T21:35:53;7.00;99.90
2867;DHT22;1441;48.886;8.728;2023-03-26T21:38:22;6.90;99.90
2867;DHT22;1441;48.886;8.728;2023-03-26T21:40:52;6.90;99.90
2867;DHT22;1441;48.886;8.728;2023-03-26T21:43:19;6.90;99.90